Event Stats: Maryland (FPO)

Last Updated: 2024-07-18 23:40:46 CT

Shows events in the Statmando database that have been held in Maryland and that include an FPO Division, capped at the most recent 1000 events.

Name EventEndDate Tour City FieldSize AvgRating TotalPurse EventRounds Winner WinnerEventRating WinnerCashPerThrow WinnerPrize
Charm City Crush III 2024-07-13 C Baltimore 3 883.8333 0 2 Eden Fornoff 926.0000 0.0000 0
Turkey Hill Contender 2024 - Pro, MA1, MA40 2024-06-29 B White Plains 1 845.5000 188 2 Talina Melanson 845.5000 0.6861 94
Woodsy Spring Classic 2024-05-12 C Woodsboro 1 758.0000 96 2 Chelsea Thompson 758.0000 0.3097 48
Only Fools Throw Frisbees 2024-04-01 C Emmitsburg 1 794.0000 0 1 Chelsea Thompson 794.0000 0.0000 0
The 4th Annual Mill Brook Open 2024-03-30 C Churchville 2 871.2500 192 2 Eden Fornoff 873.0000 0.7805 96
6th DCDDGA Championships Brewed by Streetcar 82 2024-03-23 XC La Plata 2 775.2500 0 2 Christina LaFrance 783.0000 0.0000 0
Calvert Ice Bowl (CEP Charity - Rated) 2024-02-04 XC College Park 2 787.5000 0 1 Lorena Randall 851.0000 0.0000 0
Winter Monster 2023-12-30 C Woodsboro 1 894.0000 86 1 Jennifer Smiley 894.0000 1.1026 86
Calvert Open 2023-10-07 C College Park 1 878.5000 94 2 Lorena Randall 878.5000 0.4352 47
Women's Open of Maryland Edition Number 6 (WOMEN6) 2023-09-10 A Gaithersburg 11 893.6190 12,780 3 Eliezra Midtlyng 967.5000 10.8099 1,535
Scarboro Scorcher Presented by Innova 2023-08-12 C Street 2 883.5000 190 2 Jessica Kinard 886.0000 0.8051 95
The Kinder Krusher 2023-07-23 A Millersville 3 867.3333 1,755 3 Debbie Yoo 902.3333 1.6079 365
Charm City Crush II 2023-07-08 C Baltimore 1 863.0000 150 2 Jessica Kinard 863.0000 0.6757 75
5th DCDDGA Championships Brewed by Streetcar 82 2023-03-25 XC Glen Burnie 2 796.7500 0 2 Christina LaFrance 805.5000 0.0000 0
Calvert Road Ice Bowl (CEP Charity - Rated) 2023-02-19 XC College Park 2 793.5000 0 1 Gianna Sauter 799.0000 0.0000 0
The Fight Round 5 - All Pro, MA1, MA40 2022-12-04 B La Plata 3 839.5000 590 2 Keerti Goorah 881.5000 1.3050 184
Scarboro Scramble 2022-10-22 C Street 2 932.2500 230 2 Eden Fornoff 960.0000 1.0849 115
Chris Roberts Memorial Tournament 2022-10-02 C Salisbury 1 848.5000 76 2 Rose Shertick 848.5000 0.2468 38
Rockburn Rumble 22 2022-10-01 C Elkridge 1 897.0000 62 2 Rose Shertick 897.0000 0.2541 31
Discmania Combine - Baltimore, Maryland 2022-08-13 C Baltimore 1 796.0000 0 1 Faith Colbert 796.0000 0.0000 0
The 2nd Annual Mill Brook Open - All Pro & MA1 2022-07-30 C Churchville 1 887.0000 0 2 Jessica Kinard 887.0000 0.0000 0
Charm City Crush + Throw Pink 2022-07-09 C Baltimore 4 879.1250 560 2 Jessica Kinard 907.0000 1.6055 175
Baltimore Open 2022-06-25 C Baltimore 1 795.5000 0 2 Rose Shertick 795.5000 0.0000 0
Women's Open of Maryland Edition Number 5 (WOMEN5) Presented by Bluechip Technologies 2022-05-01 A Gaithersburg 14 891.7381 13,575 3 Michelle Frazer 937.6667 7.1204 1,360
Cush Classic (CEP Charity - Rated) 2022-04-10 XC College Park 1 867.5000 0 2 Danielle Clements 867.5000 0.0000 0
Calvert Ice Bowl 2022-01-09 XC College Park 2 838.0000 0 1 Rose Shertick 845.0000 0.0000 0
The Fight Round 4 Presented by Jersey Mike's La Plata, MD - All Pro, MA1 & MA40 2021-12-05 B White Plains 3 808.1667 784 2 Rose Shertick 881.0000 2.7801 392
Turkey Toss at Calvert 2021-11-27 C College Park 1 861.0000 96 2 Rose Shertick 861.0000 0.4248 48
Seneca Fall Classic 2021 2021-11-20 C Gaithersburg 1 755.0000 38 1 Lindsay Lugo 755.0000 0.3248 38
scarbsJarn Vol. 1 2021-11-13 C Street 2 897.7500 310 2 Jessica Kinard 944.0000 1.3362 155
The Kinder Krusher (Pros & MA1) 2021-09-19 B Millersville 1 851.5000 240 2 Rose Shertick 851.5000 0.7453 120
Seneca Summer League 2021 2021-09-12 L Gaithersburg 1 0 0 Lorena Randall 0
Brantwood Blitz 2021-07-04 C Elkton 1 649.0000 84 2 Amy Moser 649.0000 0.2333 42
The Strip Down @ Brantwood powered by Prodigy 2021-04-25 C Elkton 1 847.5000 50 2 Jennifer Tozer 847.5000 0.1701 25
Scarboro Scorcher 2020-11-07 C Street 2 797.2500 90 2 Samantha Bell 815.0000 0.3659 45
Women's Open of Maryland Edition Number 4 (WOMEN4) Presented by Bluechip Technologies 2020-10-25 A Gaithersburg 12 895.7500 6,850 2 Sarah Hokom 972.5000 6.6471 1,130
Kinder Krusher - Pro and Advanced 2020-09-27 B Millersville 2 903.5000 380 2 Kelly Boyce 906.0000 1.1029 150
Druid Hill Open 2020-08-01 C Baltimore 1 806.5000 120 2 Rose Shertick 806.5000 0.4317 60
Woodsboro Open 2019-09-14 C Woodsboro 1 844.0000 0 2 Annie Chapelle 844.0000 0.0000 0
Sunday Special at Hot Shots 2019 2019-09-08 C Lexington Park 1 802.0000 26 2 Danielle Van Brunt 802.0000 0.0985 13
Women's Open of Maryland Edition Number 3 (WOMEN3) Presented by Prodigy Disc 2019-08-04 B Gaithersburg 6 883.5833 1,390 2 Kristen Parsley 934.0000 2.8947 330
Schumaker Shootout USADGC Qualifier "Sponsored by Latitude 64" 2019-03-10 C Salisbury 1 883.0000 100 2 Erin Snapp 883.0000 0.4425 50
The Fight at Turkey Hill presented by SOMD Disc Golf 2018-09-09 B La Plata 1 887.0000 308 2 Allie Stone 887.0000 1.0845 154
Schumaker "Sponsored by Dynamic Discs" 2018-07-15 C Salisbury 1 901.5000 120 2 Marsha Holbrook 901.5000 0.5769 60
Horse Bridge Golf Course "Sponsored by Dynamic Discs" 2018-07-14 C Salisbury 1 868.5000 126 2 Marsha Holbrook 868.5000 0.5040 63
Women's Open of Maryland Edition Number 2, Presented by Prodigy Disc 2018-06-30 B Gaithersburg 6 867.1667 2,172 2 Becky Harris 914.5000 3.7607 440
Southern Maryland Classic 2018-06-10 C Lexington Park 1 862.0000 94 2 Allie Stone 862.0000 0.3381 47
Seneca Creek Soiree 2018-04-29 C Gaithersburg 1 846.3333 315 3 Margaret Sassaman 846.3333 0.3962 105
Turkey Hill Contender sponsored by Sayburr Construction 2017-09-03 B La Plata 1 877.0000 0 2 Autumn Grace 877.0000 0.0000 0
Women's Open of Maryland Edition Number 1 2017-08-13 B Gaithersburg 12 886.4583 2,980 2 Kristen Parsley 945.0000 4.3860 500
Seneca Creek Soiree 2017-04-30 B Gaithersburg 3 847.8889 0 3 Alicia Knox 867.6667 0.0000 0
Fredrock Singles League 2016-12-18 L Walkersville 0 0 0 0
Happy 10th Birthday Schu Presented by Innova Disc Golf 2016-06-05 C Salisbury 1 835.5000 80 2 Marsha Holbrook 835.5000 0.3478 40
Vibram Birdie Bash at Druid Hill Park 2016-05-14 XC Baltimore 0 0 0 0.0000 0
Seneca Creek Soiree 2016-04-24 B Gaithersburg 1 836.3333 0 3 Allie Stone 836.3333 0.0000 0
McKeldin Mini Monster 2015-09-12 C Marriotsville 2 857.0000 160 2 Kelly Boyce 892.0000 0.5882 80
MDDGA Summer Classic IV.I presented by Innova 2015-06-13 B Salisbury 2 822.7500 0 2 Allie Stone 853.0000 0.0000 0
Seneca Creek Soiree 2015-04-26 B Gaithersburg 2 856.5000 375 3 Lori Merriman 880.3333 0.4921 125
The Tall Tales Brewery Summer Classic 2014-06-15 A Salisbury 2 916.5000 810 3 Hannah Leatherman 938.6667 0.8995 170
Seneca Creek Soiree 2014-04-27 B Gaithersburg 1 862.3333 210 3 Emily Landherr 862.3333 0.2652 70
Seneca Creek Soiree 2013-04-28 B Gaithersburg 3 865.6667 885 3 Melynda Apton 900.0000 0.7229 180
Bear's Birthday Bash 2012-11-03 B Salisbury 1 850.5000 0 2 Melynda Apton 850.5000 0.0000 0
Seneca Creek Soiree 2012-04-29 A Gaithersburg 3 886.6667 570 3 Melynda Apton 917.6667 0.6303 150
2011 Disc Outfitters Patapsco Picnic 2011-09-18 A Marriottsville 3 847.7778 570 3 Becky Harris 889.3333 0.5150 120
Scarboro Scorcher 2011-09-03 C Street 1 905.0000 90 2 Becky Harris 905.0000 0.3659 45
Druid Hill Open 2011-08-20 C Baltimore 1 860.5000 50 2 Charie Crick 860.5000 0.1908 25
Seneca Creek Soiree 2011-05-08 A Gaithersburg 3 910.8889 765 3 Kelly Boyce 944.3333 0.7642 175
Patapsco Picnic 2010-09-19 A Marriotsville 2 927.8333 1,200 3 Sarah Hokom 950.6667 1.5306 300
Seneca Creek Soiree 2010-05-02 A Gaithersburg 6 867.8889 1,290 3 Kelly Boyce 934.6667 0.8874 205
Patapsco Picnic 2009-09-20 A Marriotsville 5 891.1333 1,950 3 Nicole Frazer 948.0000 1.5657 310
Scarboro Scorcher 2009-08-29 C Street 1 890.0000 130 2 Becky Harris 890.0000 0.5200 65
Nomads Odyssey 2009-06-20 C Marriotsville / Elkridge 1 879.5000 160 2 Becky Harris 879.5000 0.6061 80
Seneca Creek Soiree 2009-06-07 A Gaithersburg 5 850.9333 1,404 3 Kristen Weidle 923.6667 0.9832 234
Patapsco Punisher 2009-04-04 C Marriotsville 2 851.5000 150 2 Alanna Poole 869.5000 0.3067 50
Seneca Creek Soiree 2008-11-16 A Gaithersburg 9 892.0741 1,734 3 Kristen Weidle 945.6667 0.8889 208
Seneca Creek Soiree 2007-04-29 A Gaithersburg 8 848.3333 1,575 3 Lesli Brinster 951.3333 0.8884 215
Calvert Open 2006-09-17 B College Park 1 898.0000 210 2 Rachel Gawler 898.0000 0.9722 105
Seneca Sizzler 2006-07-29 C Gaithersburg 1 831.5000 70 2 Lindsay Lugo 831.5000 0.2448 35
Seneca Creek Soiree 2006-04-30 A Gaithersburg 7 873.5357 2,140 4 Valarie Jenkins 933.0000 0.9961 255
Patapsco Picnic 2005-09-25 A Marriotsville 2 894.0000 800 4 Kelly Boyce 924.2500 0.7519 200
Calvert Open 2005-08-14 B College Park 4 898.0000 610 2 Rachel Gawler 948.0000 1.9231 200
Seneca Creek Soiree 2005-04-24 B Gaithersburg 6 822.8333 1,360 4 Rachel Gawler 889.0000 0.5415 150
Patapsco Open 2005-04-09 C Marriotsville 2 873.2500 160 2 Lindsay Lugo 876.5000 0.5797 80
Druid Hill Open 2004-08-01 B Baltimore 1 863.5000 200 2 Amy Moser 863.5000 0.7692 100
Calvert Open 2004-07-31 B College Park 1 749.5000 140 2 Mary Yerd 749.5000 0.5263 70
Patapsco Picnic 2004-07-04 A Marriotsville 6 891.5833 3,080 4 Des Reading 954.7500 1.5909 385
Seneca Creek Soiree 2004-04-25 B Gaithersburg 8 819.6250 1,960 4 Angela Martin 900.0000 0.7519 200
Patapsco Open 2004-04-10 C Ellicott City 3 792.1667 220 2 Rachel Gawler 913.5000 0.5682 75
MADC Invitational (4th) 2003-10-25 XB Baltimore 4 801.3750 670 2 Lesli Brinster 893.0000 1.6379 190
Druid Hill Open 2003-09-28 B Towson 3 835.6667 520 2 Rachel Gawler 888.5000 1.1250 135
Patapsco Picnic 2003-09-07 A Ellicott City 5 858.6000 2,480 4 Elaine King 916.0000 1.1877 310
Calvert Open 2003-08-02 B College Park 2 843.2500 450 2 Rachel Gawler 879.0000 1.3043 150
Seneca Creek Soiree 2003-04-27 NT Gaithersburg 13 851.6410 5,978 4 Elaine King 949.6667 2.2624 500
Patapsco Open 2003-04-12 B Ellicott City 3 853.6667 210 2 Rachel Gawler 878.5000 0.5185 70
Calvert Open 2002-09-08 B College Park 2 889.0000 400 2 Rachel Gawler 892.0000 1.2174 140
Patapsco Picnic 2002-06-30 A Ellicott City 5 924.9500 2,520 4 Elaine King 964.7500 1.2857 315
Seneca Creek Soiree 2002-04-28 A Gaithersburg 9 898.0000 4,360 4 Lesli Todd 963.2500 1.4228 350
Patapsco Pro/Am 2002-04-13 B Ellicott City 2 919.7500 140 2 Angela Martin 923.5000 0.5385 70
Calvert Open 2001-09-09 B College Park 2 874.5000 260 2 Rachel Gawler 901.0000 0.8850 100
Patapsco Picnic 2001-07-01 A Ellicott City 6 878.0000 2,100 4 Juliana Korver 924.2500 1.0516 265
Galyan's Seneca Creek Soiree 2001-04-29 A Gaithersburg 10 861.0000 3,960 4 Lesli Todd 924.2500 1.5267 400
Calvert Open 2000-09-10 C College Park 5 580 2 Juliana Korver 1.5385 140
Patapsco Picnic 2000-06-04 B Ellicott City 2 840.5000 660 4 Angela Martin 837.0000 0.3509 100
9th Annual Seneca Creek Soiree 2000-04-30 A Gaithersburg 9 871.2813 3,120 4 Juliana Korver 947.5000 1.3115 320
Charm City Classic 1999-07-11 B Baltimore 3 866.9167 1,050 5 Angela Martin 883.2500 0.5204 140
Patapsco Open 1999-06-06 B Marriottsville 4 867.2500 960 4 Beth Tanner 900.2500 0.7905 200
Seneca Creek Open 1999-04-25 A Gaithersburg 6 850.6500 0 4 Angela Martin 899.0000 0.0000 0
Charm City Classic 1998-09-27 B Baltimore 1 120 2 Nina Neville 0.4839 60
Patapsco Open 1998-06-07 B Marriottsville 4 800 4 Angela Martin 0.5098 130
7th Annual Seneca Creek Soiree 1998-04-19 A Gaithersburg 7 1,680 4 Beth Tanner 0.8487 230
Patapsco Open 1997-06-08 B Marriottsville 3 560 4 Angela Martin 0.4428 120
6th Annual Seneca Creek Soiree 1997-04-20 A Gaithersburg 5 960 4 Angela Martin 0.5837 150
1996 Calvert Open 1996-06-30 B College Park 4 0 4 Angela Martin 0.0000 0
Baltimore Open 1996-06-09 B Baltimore 5 400 2 Angela Martin 1.2097 150
5th Annual Seneca Creek Soiree 1996-04-21 B Gaithersburg 4 555 3 Angela Martin 0.5324 115
Baltimore Classic 1995-08-27 B Baltimore 2 160 4 Angela Martin 0.1660 40
Druid Legend 1995-06-11 B Baltimore 6 440 2 Sue Purdunas 0.8621 150
4th Annual Seneca Creek Soiree 1995-04-02 B Gaithersburg 3 450 3 Lisa M Troutman 0.5116 110
Calvert Open 1994-07-10 B College Park 2 75 0 Sue Purdunas 0.2252 50
Baltimore Open 1994-06-12 B Baltimore 2 20 2 Lisa M Troutman 0.0820 10
Seneca Creek Soiree 1994-03-20 B Gaithersburg 4 0 0 Sue Purdunas 0.0000 0
Calvert Road Open 1993-07-10 C College Park 2 135 3 Lisa M Troutman 0.2113 30
Seneca Creek Soiree 1993-04-04 A Gaithersburg 4 720 4 Sue Purdunas 0.3492 110
Crabtown Classic 1992-09-13 C Baltimore 2 100 2 Sue Purdunas 0.4098 50
Seneca Creek Soiree 1992-05-03 C Gaithersburg 1 75 3 Susanne Giendl 0.1208 25
College Park 99 1991-10-13 C College Park 1 150 5 Linda J. Berg 0.0915 30
Maryland State Frisbee Championships 1991-09-22 C Gaithersburg 2 180 3 Susanne Giendl 0.3046 60
Revenge of the Red Tail 1990-09-09 C Baltimore 2 120 3 Sandy Steger 0.2837 40
Maryland State Championships 1990-08-19 C Gaithersburg 6 504 3 Sandy Steger 0.6145 110
Calvert Road Open 1990-07-07 C College Park 3 225 3 Sandy Steger 0.3106 50
Baltimore Open 1990-06-10 C Baltimore 4 345 3 Denise Brace 0.5319 75
Maryland State Championships 1989-10-15 C Baltimore 7 580 4 Denise Brace 0.4124 80
College Park 99 1989-10-08 C College Park 4 360 6 Denise Brace 0.1329 40
Calvert Road Disc Golf Open 1989-07-08 C College Park 2 180 3 Denise Brace 0.3947 60
Hardee's Open 1989-06-11 A Baltimore 9 2,375 5 Vanessa Chambers 1.0163 250
College Park 99 1988-10-09 C College Park 3 325 5 Denise Brace 0.1423 40
Maryland State Championships 1988-10-02 C Baltimore 7 510 3 Sandy Steger 0.6024 100
Calvert Road Open 1988-07-09 C College Park 6 0 3 Denise Brace 0.0000 0
Hardee's Open 1988-06-12 C Baltimore 11 0 3 Vanessa Chambers 0.0000 0
College Park Disc Golf Open 1987-10-25 C College Park 3 225 5 Denise Brace 0.1103 30
Maryland State Disc Championships 1987-10-11 C Baltimore 5 1,504 4 Denise Brace 1.0638 250
Pine Grove Fall Classic 1987-09-13 C Baltimore 1 20 2 Denise Brace 0.0769 10
Calvert Road Open 1987-07-12 C College Park 2 135 3 Denise Brace 0.2096 35
Druid Hill Inagural 1987-05-31 C Baltimore 5 375 3 Sandy Steger 0.6135 100
Maryland State Championships 1986-10-19 C College Park 4 0 5 Denise Brace 0.0000 0
1986 Cherry Blossom Disc Golf Classic 1986-05-04 C College Park 4 0 4 Erin Hart 0.0000 0
Maryland State Championships 1985-10-06 C College Park 2 65 5 Sandy Steger 0.0480 13
Maryland State Championships 1984-10-07 C College Park 1 0 0 Sandy Steger 0
College Park 99 1983-10-02 C College Park 1 0 0 Sandy Steger 0